sensor_id;sensor_type;location;lat;lon;timestamp;P1;durP1;ratioP1;P2;durP2;ratioP2
1370;SDS011;14306;49.942;11.570;2023-11-19T00:01:17;8.53;;;7.50;;
1370;SDS011;14306;49.942;11.570;2023-11-19T00:03:45;9.20;;;6.63;;
1370;SDS011;14306;49.942;11.570;2023-11-19T00:06:16;11.47;;;7.60;;
1370;SDS011;14306;49.942;11.570;2023-11-19T00:08:45;9.80;;;6.80;;
1370;SDS011;14306;49.942;11.570;2023-11-19T00:11:14;12.30;;;8.73;;
1370;SDS011;14306;49.942;11.570;2023-11-19T00:13:42;9.67;;;7.17;;
1370;SDS011;14306;49.942;11.570;2023-11-19T00:16:10;12.43;;;8.57;;
1370;SDS011;14306;49.942;11.570;2023-11-19T00:18:38;11.03;;;7.17;;
1370;SDS011;14306;49.942;11.570;2023-11-19T00:21:07;10.60;;;7.40;;
1370;SDS011;14306;49.942;11.570;2023-11-19T00:23:36;8.80;;;6.87;;
1370;SDS011;14306;49.942;11.570;2023-11-19T00:26:04;8.80;;;7.20;;
1370;SDS011;14306;49.942;11.570;2023-11-19T00:28:34;10.47;;;6.73;;
1370;SDS011;14306;49.942;11.570;2023-11-19T00:31:05;10.47;;;7.17;;
1370;SDS011;14306;49.942;11.570;2023-11-19T00:33:33;12.10;;;7.50;;
1370;SDS011;14306;49.942;11.570;2023-11-19T00:36:01;9.50;;;7.23;;
1370;SDS011;14306;49.942;11.570;2023-11-19T00:38:29;9.20;;;7.27;;
1370;SDS011;14306;49.942;11.570;2023-11-19T00:40:58;10.40;;;7.30;;
1370;SDS011;14306;49.942;11.570;2023-11-19T00:43:26;9.47;;;6.67;;
1370;SDS011;14306;49.942;11.570;2023-11-19T00:45:56;8.40;;;6.77;;
1370;SDS011;14306;49.942;11.570;2023-11-19T00:48:24;11.10;;;6.90;;
1370;SDS011;14306;49.942;11.570;2023-11-19T00:50:53;13.07;;;6.53;;
1370;SDS011;14306;49.942;11.570;2023-11-19T00:53:21;13.60;;;7.00;;
1370;SDS011;14306;49.942;11.570;2023-11-19T00:55:49;10.43;;;6.90;;
1370;SDS011;14306;49.942;11.570;2023-11-19T00:58:18;10.47;;;6.80;;
1370;SDS011;14306;49.942;11.570;2023-11-19T01:00:46;11.33;;;7.00;;
1370;SDS011;14306;49.942;11.570;2023-11-19T01:03:16;9.10;;;6.37;;
1370;SDS011;14306;49.942;11.570;2023-11-19T01:05:44;12.87;;;7.93;;
1370;SDS011;14306;49.942;11.570;2023-11-19T01:08:14;13.70;;;7.97;;
1370;SDS011;14306;49.942;11.570;2023-11-19T01:10:42;10.80;;;7.37;;
1370;SDS011;14306;49.942;11.570;2023-11-19T01:13:11;11.60;;;7.70;;
1370;SDS011;14306;49.942;11.570;2023-11-19T01:15:39;7.13;;;5.93;;
1370;SDS011;14306;49.942;11.570;2023-11-19T01:18:08;9.50;;;6.03;;
1370;SDS011;14306;49.942;11.570;2023-11-19T01:20:38;10.10;;;5.90;;
1370;SDS011;14306;49.942;11.570;2023-11-19T01:23:06;6.90;;;5.20;;
1370;SDS011;14306;49.942;11.570;2023-11-19T01:25:35;7.23;;;5.40;;
1370;SDS011;14306;49.942;11.570;2023-11-19T01:28:04;6.30;;;4.67;;
1370;SDS011;14306;49.942;11.570;2023-11-19T01:30:32;5.43;;;4.40;;
1370;SDS011;14306;49.942;11.570;2023-11-19T01:33:01;5.80;;;4.27;;
1370;SDS011;14306;49.942;11.570;2023-11-19T01:35:29;6.13;;;4.07;;
1370;SDS011;14306;49.942;11.570;2023-11-19T01:37:58;3.97;;;3.50;;
1370;SDS011;14306;49.942;11.570;2023-11-19T01:40:27;5.47;;;4.30;;
1370;SDS011;14306;49.942;11.570;2023-11-19T01:42:55;7.40;;;4.87;;
1370;SDS011;14306;49.942;11.570;2023-11-19T01:45:26;5.70;;;4.53;;
1370;SDS011;14306;49.942;11.570;2023-11-19T01:47:58;7.30;;;5.30;;
1370;SDS011;14306;49.942;11.570;2023-11-19T01:50:28;4.93;;;4.07;;
1370;SDS011;14306;49.942;11.570;2023-11-19T01:52:59;7.43;;;5.37;;
1370;SDS011;14306;49.942;11.570;2023-11-19T01:55:28;7.90;;;4.67;;
1370;SDS011;14306;49.942;11.570;2023-11-19T01:57:57;7.10;;;4.50;;
1370;SDS011;14306;49.942;11.570;2023-11-19T02:00:29;6.27;;;4.40;;
1370;SDS011;14306;49.942;11.570;2023-11-19T02:02:59;5.33;;;4.73;;
1370;SDS011;14306;49.942;11.570;2023-11-19T02:05:30;5.50;;;4.03;;
1370;SDS011;14306;49.942;11.570;2023-11-19T02:08:01;5.20;;;4.63;;
1370;SDS011;14306;49.942;11.570;2023-11-19T02:10:29;4.73;;;3.83;;
1370;SDS011;14306;49.942;11.570;2023-11-19T02:12:59;6.93;;;4.13;;
1370;SDS011;14306;49.942;11.570;2023-11-19T02:15:32;5.20;;;3.67;;
1370;SDS011;14306;49.942;11.570;2023-11-19T02:18:20;4.83;;;4.00;;
1370;SDS011;14306;49.942;11.570;2023-11-19T02:20:49;4.60;;;4.00;;
1370;SDS011;14306;49.942;11.570;2023-11-19T02:23:20;4.13;;;3.07;;
1370;SDS011;14306;49.942;11.570;2023-11-19T02:25:52;7.17;;;3.43;;
1370;SDS011;14306;49.942;11.570;2023-11-19T02:28:29;5.47;;;3.57;;
1370;SDS011;14306;49.942;11.570;2023-11-19T02:30:59;3.77;;;3.33;;
1370;SDS011;14306;49.942;11.570;2023-11-19T02:33:27;4.63;;;3.57;;
1370;SDS011;14306;49.942;11.570;2023-11-19T02:35:56;3.67;;;3.37;;
1370;SDS011;14306;49.942;11.570;2023-11-19T02:38:24;4.67;;;3.30;;
1370;SDS011;14306;49.942;11.570;2023-11-19T02:40:52;3.73;;;3.37;;
1370;SDS011;14306;49.942;11.570;2023-11-19T02:43:20;4.80;;;3.40;;
1370;SDS011;14306;49.942;11.570;2023-11-19T02:45:50;4.20;;;3.20;;
1370;SDS011;14306;49.942;11.570;2023-11-19T02:48:22;7.03;;;3.60;;
1370;SDS011;14306;49.942;11.570;2023-11-19T02:50:51;3.60;;;3.20;;
1370;SDS011;14306;49.942;11.570;2023-11-19T02:53:19;4.03;;;3.23;;
1370;SDS011;14306;49.942;11.570;2023-11-19T02:55:49;4.20;;;3.40;;
1370;SDS011;14306;49.942;11.570;2023-11-19T02:58:18;3.47;;;3.13;;
1370;SDS011;14306;49.942;11.570;2023-11-19T03:00:52;4.07;;;3.37;;
1370;SDS011;14306;49.942;11.570;2023-11-19T03:03:24;4.40;;;3.50;;
1370;SDS011;14306;49.942;11.570;2023-11-19T03:05:55;3.97;;;2.77;;
1370;SDS011;14306;49.942;11.570;2023-11-19T03:08:23;3.37;;;3.07;;
1370;SDS011;14306;49.942;11.570;2023-11-19T03:10:51;3.90;;;2.80;;
1370;SDS011;14306;49.942;11.570;2023-11-19T03:13:23;3.83;;;2.67;;
1370;SDS011;14306;49.942;11.570;2023-11-19T03:15:52;3.43;;;2.40;;
1370;SDS011;14306;49.942;11.570;2023-11-19T03:18:21;2.80;;;2.40;;
1370;SDS011;14306;49.942;11.570;2023-11-19T03:20:50;3.37;;;2.37;;
1370;SDS011;14306;49.942;11.570;2023-11-19T03:23:18;2.90;;;2.57;;
1370;SDS011;14306;49.942;11.570;2023-11-19T03:25:47;4.03;;;2.67;;
1370;SDS011;14306;49.942;11.570;2023-11-19T03:28:15;3.93;;;2.43;;
1370;SDS011;14306;49.942;11.570;2023-11-19T03:30:43;4.50;;;2.33;;
1370;SDS011;14306;49.942;11.570;2023-11-19T03:33:14;3.27;;;2.40;;
1370;SDS011;14306;49.942;11.570;2023-11-19T03:35:42;2.40;;;2.10;;
1370;SDS011;14306;49.942;11.570;2023-11-19T03:38:10;3.53;;;2.27;;
1370;SDS011;14306;49.942;11.570;2023-11-19T03:40:38;2.20;;;2.00;;
1370;SDS011;14306;49.942;11.570;2023-11-19T03:43:07;2.00;;;1.80;;
1370;SDS011;14306;49.942;11.570;2023-11-19T03:45:35;2.27;;;2.07;;
1370;SDS011;14306;49.942;11.570;2023-11-19T03:48:04;2.90;;;2.40;;
1370;SDS011;14306;49.942;11.570;2023-11-19T03:50:34;2.23;;;1.73;;
1370;SDS011;14306;49.942;11.570;2023-11-19T03:53:02;3.37;;;2.07;;
1370;SDS011;14306;49.942;11.570;2023-11-19T03:55:31;5.53;;;1.60;;
1370;SDS011;14306;49.942;11.570;2023-11-19T03:57:59;2.30;;;2.10;;
1370;SDS011;14306;49.942;11.570;2023-11-19T04:00:28;4.73;;;2.10;;
1370;SDS011;14306;49.942;11.570;2023-11-19T04:02:56;2.83;;;2.17;;
1370;SDS011;14306;49.942;11.570;2023-11-19T04:05:25;2.60;;;1.93;;
1370;SDS011;14306;49.942;11.570;2023-11-19T04:07:54;2.10;;;1.90;;
1370;SDS011;14306;49.942;11.570;2023-11-19T04:10:23;2.20;;;2.00;;
1370;SDS011;14306;49.942;11.570;2023-11-19T04:12:51;2.07;;;1.87;;
1370;SDS011;14306;49.942;11.570;2023-11-19T04:15:19;2.20;;;2.00;;
1370;SDS011;14306;49.942;11.570;2023-11-19T04:17:47;2.30;;;2.10;;
1370;SDS011;14306;49.942;11.570;2023-11-19T04:20:16;2.60;;;1.73;;
1370;SDS011;14306;49.942;11.570;2023-11-19T04:22:44;2.17;;;2.03;;
1370;SDS011;14306;49.942;11.570;2023-11-19T04:25:14;1.93;;;1.83;;
1370;SDS011;14306;49.942;11.570;2023-11-19T04:27:43;1.90;;;1.57;;
1370;SDS011;14306;49.942;11.570;2023-11-19T04:30:11;2.67;;;2.13;;
1370;SDS011;14306;49.942;11.570;2023-11-19T04:32:40;2.30;;;1.77;;
1370;SDS011;14306;49.942;11.570;2023-11-19T04:35:08;1.97;;;1.77;;
1370;SDS011;14306;49.942;11.570;2023-11-19T04:37:37;2.90;;;2.40;;
1370;SDS011;14306;49.942;11.570;2023-11-19T04:40:06;2.70;;;1.97;;
1370;SDS011;14306;49.942;11.570;2023-11-19T04:42:37;2.10;;;1.83;;
1370;SDS011;14306;49.942;11.570;2023-11-19T04:45:07;2.00;;;1.83;;
1370;SDS011;14306;49.942;11.570;2023-11-19T04:47:37;2.53;;;2.00;;
1370;SDS011;14306;49.942;11.570;2023-11-19T04:50:05;2.60;;;2.40;;
1370;SDS011;14306;49.942;11.570;2023-11-19T04:52:38;2.47;;;2.27;;
1370;SDS011;14306;49.942;11.570;2023-11-19T04:55:08;3.37;;;2.40;;
1370;SDS011;14306;49.942;11.570;2023-11-19T04:57:41;2.10;;;1.90;;
1370;SDS011;14306;49.942;11.570;2023-11-19T05:00:10;3.73;;;3.07;;
1370;SDS011;14306;49.942;11.570;2023-11-19T05:02:43;2.23;;;2.03;;
1370;SDS011;14306;49.942;11.570;2023-11-19T05:05:11;2.57;;;2.23;;
1370;SDS011;14306;49.942;11.570;2023-11-19T05:07:40;2.80;;;2.50;;
1370;SDS011;14306;49.942;11.570;2023-11-19T05:10:08;2.97;;;2.53;;
1370;SDS011;14306;49.942;11.570;2023-11-19T05:12:37;3.33;;;2.63;;
1370;SDS011;14306;49.942;11.570;2023-11-19T05:15:07;3.83;;;2.77;;
1370;SDS011;14306;49.942;11.570;2023-11-19T05:17:37;2.70;;;2.47;;
1370;SDS011;14306;49.942;11.570;2023-11-19T05:20:06;3.83;;;2.60;;
1370;SDS011;14306;49.942;11.570;2023-11-19T05:22:40;3.93;;;3.43;;
1370;SDS011;14306;49.942;11.570;2023-11-19T05:25:09;3.20;;;2.60;;
1370;SDS011;14306;49.942;11.570;2023-11-19T05:27:38;3.20;;;2.87;;
1370;SDS011;14306;49.942;11.570;2023-11-19T05:30:08;3.03;;;2.63;;
1370;SDS011;14306;49.942;11.570;2023-11-19T05:32:37;4.37;;;2.90;;
1370;SDS011;14306;49.942;11.570;2023-11-19T05:35:06;2.67;;;2.33;;
1370;SDS011;14306;49.942;11.570;2023-11-19T05:37:36;2.70;;;2.50;;
1370;SDS011;14306;49.942;11.570;2023-11-19T05:40:05;2.83;;;2.40;;
1370;SDS011;14306;49.942;11.570;2023-11-19T05:42:42;3.50;;;2.60;;
1370;SDS011;14306;49.942;11.570;2023-11-19T05:45:11;3.23;;;2.70;;
1370;SDS011;14306;49.942;11.570;2023-11-19T05:47:40;3.27;;;2.80;;
1370;SDS011;14306;49.942;11.570;2023-11-19T05:50:10;3.53;;;2.50;;
1370;SDS011;14306;49.942;11.570;2023-11-19T05:52:38;3.97;;;2.90;;
1370;SDS011;14306;49.942;11.570;2023-11-19T05:55:07;4.17;;;3.03;;
1370;SDS011;14306;49.942;11.570;2023-11-19T05:57:37;3.40;;;3.10;;
1370;SDS011;14306;49.942;11.570;2023-11-19T06:00:09;4.33;;;3.30;;
1370;SDS011;14306;49.942;11.570;2023-11-19T06:02:42;3.40;;;3.10;;
1370;SDS011;14306;49.942;11.570;2023-11-19T06:05:11;4.60;;;3.30;;
1370;SDS011;14306;49.942;11.570;2023-11-19T06:07:39;4.13;;;3.17;;
1370;SDS011;14306;49.942;11.570;2023-11-19T06:10:08;4.77;;;3.30;;
1370;SDS011;14306;49.942;11.570;2023-11-19T06:12:37;4.00;;;3.40;;
1370;SDS011;14306;49.942;11.570;2023-11-19T06:15:08;5.70;;;3.90;;
1370;SDS011;14306;49.942;11.570;2023-11-19T06:17:38;3.60;;;3.00;;
1370;SDS011;14306;49.942;11.570;2023-11-19T06:20:07;4.50;;;3.30;;
1370;SDS011;14306;49.942;11.570;2023-11-19T06:22:38;3.50;;;2.90;;
1370;SDS011;14306;49.942;11.570;2023-11-19T06:25:09;4.67;;;3.60;;
1370;SDS011;14306;49.942;11.570;2023-11-19T06:27:41;4.23;;;3.57;;
1370;SDS011;14306;49.942;11.570;2023-11-19T06:30:10;4.70;;;4.03;;
1370;SDS011;14306;49.942;11.570;2023-11-19T06:32:40;3.83;;;3.20;;
1370;SDS011;14306;49.942;11.570;2023-11-19T06:35:09;4.90;;;3.27;;
1370;SDS011;14306;49.942;11.570;2023-11-19T06:37:38;4.57;;;3.50;;
1370;SDS011;14306;49.942;11.570;2023-11-19T06:40:07;5.13;;;3.07;;
1370;SDS011;14306;49.942;11.570;2023-11-19T06:42:37;4.00;;;3.13;;
1370;SDS011;14306;49.942;11.570;2023-11-19T06:45:06;5.77;;;4.10;;
1370;SDS011;14306;49.942;11.570;2023-11-19T06:47:34;4.30;;;3.87;;
1370;SDS011;14306;49.942;11.570;2023-11-19T06:50:05;3.83;;;3.27;;
1370;SDS011;14306;49.942;11.570;2023-11-19T06:52:35;3.80;;;3.30;;
1370;SDS011;14306;49.942;11.570;2023-11-19T06:55:05;4.93;;;3.77;;
1370;SDS011;14306;49.942;11.570;2023-11-19T06:57:35;4.80;;;3.80;;
1370;SDS011;14306;49.942;11.570;2023-11-19T07:00:03;4.80;;;4.10;;
1370;SDS011;14306;49.942;11.570;2023-11-19T07:02:33;4.57;;;3.10;;
1370;SDS011;14306;49.942;11.570;2023-11-19T07:05:02;6.10;;;3.00;;
1370;SDS011;14306;49.942;11.570;2023-11-19T07:07:32;4.43;;;3.47;;
1370;SDS011;14306;49.942;11.570;2023-11-19T07:10:02;5.70;;;3.30;;
1370;SDS011;14306;49.942;11.570;2023-11-19T07:12:33;4.63;;;3.10;;
1370;SDS011;14306;49.942;11.570;2023-11-19T07:15:03;3.60;;;3.07;;
1370;SDS011;14306;49.942;11.570;2023-11-19T07:17:32;4.20;;;2.83;;
1370;SDS011;14306;49.942;11.570;2023-11-19T07:20:01;3.60;;;2.50;;
1370;SDS011;14306;49.942;11.570;2023-11-19T07:22:32;4.33;;;3.23;;
1370;SDS011;14306;49.942;11.570;2023-11-19T07:25:00;3.77;;;3.30;;
1370;SDS011;14306;49.942;11.570;2023-11-19T07:27:29;4.67;;;3.37;;
1370;SDS011;14306;49.942;11.570;2023-11-19T07:29:57;4.07;;;3.40;;
1370;SDS011;14306;49.942;11.570;2023-11-19T07:32:26;4.37;;;3.53;;
1370;SDS011;14306;49.942;11.570;2023-11-19T07:34:54;3.60;;;3.07;;
1370;SDS011;14306;49.942;11.570;2023-11-19T07:37:23;4.87;;;3.70;;
1370;SDS011;14306;49.942;11.570;2023-11-19T07:39:53;8.90;;;5.40;;
1370;SDS011;14306;49.942;11.570;2023-11-19T07:42:21;3.97;;;3.50;;
1370;SDS011;14306;49.942;11.570;2023-11-19T07:44:50;5.33;;;4.00;;
1370;SDS011;14306;49.942;11.570;2023-11-19T07:47:18;5.30;;;4.27;;
1370;SDS011;14306;49.942;11.570;2023-11-19T07:49:49;5.97;;;3.73;;
1370;SDS011;14306;49.942;11.570;2023-11-19T07:52:17;5.13;;;3.80;;
1370;SDS011;14306;49.942;11.570;2023-11-19T07:54:48;3.37;;;2.70;;
1370;SDS011;14306;49.942;11.570;2023-11-19T07:57:18;3.73;;;3.10;;
1370;SDS011;14306;49.942;11.570;2023-11-19T07:59:46;2.70;;;2.47;;
1370;SDS011;14306;49.942;11.570;2023-11-19T08:02:14;4.27;;;2.73;;
1370;SDS011;14306;49.942;11.570;2023-11-19T08:04:43;2.60;;;2.33;;
1370;SDS011;14306;49.942;11.570;2023-11-19T08:07:13;4.33;;;3.20;;
1370;SDS011;14306;49.942;11.570;2023-11-19T08:09:41;2.43;;;2.20;;
1370;SDS011;14306;49.942;11.570;2023-11-19T08:12:09;1.77;;;1.40;;
1370;SDS011;14306;49.942;11.570;2023-11-19T08:14:41;1.53;;;1.10;;
1370;SDS011;14306;49.942;11.570;2023-11-19T08:17:10;2.37;;;1.10;;
1370;SDS011;14306;49.942;11.570;2023-11-19T08:19:38;1.20;;;1.10;;
1370;SDS011;14306;49.942;11.570;2023-11-19T08:22:07;2.03;;;1.33;;
1370;SDS011;14306;49.942;11.570;2023-11-19T08:24:36;1.87;;;1.57;;
1370;SDS011;14306;49.942;11.570;2023-11-19T08:27:04;1.47;;;1.30;;
1370;SDS011;14306;49.942;11.570;2023-11-19T08:29:33;2.20;;;1.47;;
1370;SDS011;14306;49.942;11.570;2023-11-19T08:32:03;2.43;;;1.30;;
1370;SDS011;14306;49.942;11.570;2023-11-19T08:34:33;1.93;;;1.50;;
1370;SDS011;14306;49.942;11.570;2023-11-19T08:37:01;1.73;;;1.63;;
1370;SDS011;14306;49.942;11.570;2023-11-19T08:39:30;1.73;;;1.63;;
1370;SDS011;14306;49.942;11.570;2023-11-19T08:41:59;2.10;;;1.90;;
1370;SDS011;14306;49.942;11.570;2023-11-19T08:44:27;2.40;;;2.20;;
1370;SDS011;14306;49.942;11.570;2023-11-19T08:46:55;2.40;;;2.20;;
1370;SDS011;14306;49.942;11.570;2023-11-19T08:49:24;2.50;;;1.80;;
1370;SDS011;14306;49.942;11.570;2023-11-19T08:51:52;2.87;;;2.67;;
1370;SDS011;14306;49.942;11.570;2023-11-19T08:54:20;3.03;;;2.73;;
1370;SDS011;14306;49.942;11.570;2023-11-19T08:56:49;2.87;;;2.50;;
1370;SDS011;14306;49.942;11.570;2023-11-19T08:59:18;3.87;;;2.73;;
1370;SDS011;14306;49.942;11.570;2023-11-19T09:01:46;2.80;;;2.60;;
1370;SDS011;14306;49.942;11.570;2023-11-19T09:04:15;3.33;;;3.03;;
1370;SDS011;14306;49.942;11.570;2023-11-19T09:06:45;2.53;;;2.33;;
1370;SDS011;14306;49.942;11.570;2023-11-19T09:09:13;3.33;;;2.47;;
1370;SDS011;14306;49.942;11.570;2023-11-19T09:11:42;3.30;;;3.00;;
1370;SDS011;14306;49.942;11.570;2023-11-19T09:14:10;4.23;;;3.30;;
1370;SDS011;14306;49.942;11.570;2023-11-19T09:16:39;4.90;;;4.10;;
1370;SDS011;14306;49.942;11.570;2023-11-19T09:19:07;3.47;;;3.17;;
1370;SDS011;14306;49.942;11.570;2023-11-19T09:21:35;3.60;;;3.23;;
1370;SDS011;14306;49.942;11.570;2023-11-19T09:24:07;3.30;;;3.00;;
1370;SDS011;14306;49.942;11.570;2023-11-19T09:26:35;2.90;;;2.70;;
1370;SDS011;14306;49.942;11.570;2023-11-19T09:29:06;2.80;;;2.60;;
1370;SDS011;14306;49.942;11.570;2023-11-19T09:31:35;3.40;;;3.10;;
1370;SDS011;14306;49.942;11.570;2023-11-19T09:34:05;3.37;;;3.17;;
1370;SDS011;14306;49.942;11.570;2023-11-19T09:36:34;3.03;;;2.83;;
1370;SDS011;14306;49.942;11.570;2023-11-19T09:39:02;3.97;;;2.77;;
1370;SDS011;14306;49.942;11.570;2023-11-19T09:41:33;4.03;;;2.57;;
1370;SDS011;14306;49.942;11.570;2023-11-19T09:44:02;6.43;;;3.47;;
1370;SDS011;14306;49.942;11.570;2023-11-19T09:46:30;4.03;;;2.20;;
1370;SDS011;14306;49.942;11.570;2023-11-19T09:48:58;6.00;;;2.97;;
1370;SDS011;14306;49.942;11.570;2023-11-19T09:51:28;2.80;;;2.33;;
1370;SDS011;14306;49.942;11.570;2023-11-19T09:53:57;2.40;;;1.87;;
1370;SDS011;14306;49.942;11.570;2023-11-19T09:56:25;4.20;;;1.90;;
1370;SDS011;14306;49.942;11.570;2023-11-19T09:58:58;3.40;;;2.20;;
1370;SDS011;14306;49.942;11.570;2023-11-19T10:01:27;2.03;;;1.87;;
1370;SDS011;14306;49.942;11.570;2023-11-19T10:03:58;3.70;;;1.53;;
1370;SDS011;14306;49.942;11.570;2023-11-19T10:06:28;5.23;;;1.80;;
1370;SDS011;14306;49.942;11.570;2023-11-19T10:08:57;3.60;;;1.30;;
1370;SDS011;14306;49.942;11.570;2023-11-19T10:11:26;2.70;;;1.70;;
1370;SDS011;14306;49.942;11.570;2023-11-19T10:13:57;1.83;;;1.37;;
1370;SDS011;14306;49.942;11.570;2023-11-19T10:16:30;2.07;;;1.60;;
1370;SDS011;14306;49.942;11.570;2023-11-19T10:18:59;3.23;;;1.20;;
1370;SDS011;14306;49.942;11.570;2023-11-19T10:21:27;2.00;;;1.30;;
1370;SDS011;14306;49.942;11.570;2023-11-19T10:23:58;2.20;;;1.50;;
1370;SDS011;14306;49.942;11.570;2023-11-19T10:26:27;2.20;;;2.00;;
1370;SDS011;14306;49.942;11.570;2023-11-19T10:28:57;2.40;;;1.20;;
1370;SDS011;14306;49.942;11.570;2023-11-19T10:31:26;2.70;;;1.40;;
1370;SDS011;14306;49.942;11.570;2023-11-19T10:33:55;7.60;;;1.60;;
1370;SDS011;14306;49.942;11.570;2023-11-19T10:36:26;2.00;;;1.57;;
1370;SDS011;14306;49.942;11.570;2023-11-19T10:39:06;1.53;;;1.30;;
1370;SDS011;14306;49.942;11.570;2023-11-19T10:41:35;1.70;;;1.33;;
1370;SDS011;14306;49.942;11.570;2023-11-19T10:44:05;1.87;;;1.10;;
1370;SDS011;14306;49.942;11.570;2023-11-19T10:46:36;1.80;;;1.17;;
1370;SDS011;14306;49.942;11.570;2023-11-19T10:49:06;1.80;;;1.50;;
1370;SDS011;14306;49.942;11.570;2023-11-19T10:51:34;1.50;;;1.40;;
1370;SDS011;14306;49.942;11.570;2023-11-19T10:54:03;2.57;;;1.30;;
1370;SDS011;14306;49.942;11.570;2023-11-19T10:56:33;5.17;;;3.27;;
1370;SDS011;14306;49.942;11.570;2023-11-19T10:59:02;3.07;;;1.80;;
1370;SDS011;14306;49.942;11.570;2023-11-19T11:01:52;8.00;;;1.83;;
1370;SDS011;14306;49.942;11.570;2023-11-19T11:04:22;6.20;;;3.60;;
1370;SDS011;14306;49.942;11.570;2023-11-19T11:06:53;2.00;;;1.77;;
1370;SDS011;14306;49.942;11.570;2023-11-19T11:09:22;2.73;;;1.73;;
1370;SDS011;14306;49.942;11.570;2023-11-19T11:11:51;7.07;;;1.60;;
1370;SDS011;14306;49.942;11.570;2023-11-19T11:14:20;5.20;;;2.33;;
1370;SDS011;14306;49.942;11.570;2023-11-19T11:16:51;3.73;;;1.90;;
1370;SDS011;14306;49.942;11.570;2023-11-19T11:19:21;6.40;;;2.33;;
1370;SDS011;14306;49.942;11.570;2023-11-19T11:21:49;4.87;;;2.90;;
1370;SDS011;14306;49.942;11.570;2023-11-19T11:24:24;2.27;;;2.00;;
1370;SDS011;14306;49.942;11.570;2023-11-19T11:30:13;4.60;;;2.30;;
1370;SDS011;14306;49.942;11.570;2023-11-19T11:33:01;5.57;;;1.70;;
1370;SDS011;14306;49.942;11.570;2023-11-19T11:35:43;1.60;;;1.33;;
1370;SDS011;14306;49.942;11.570;2023-11-19T11:38:21;2.23;;;1.70;;
1370;SDS011;14306;49.942;11.570;2023-11-19T11:43:46;2.30;;;1.43;;
1370;SDS011;14306;49.942;11.570;2023-11-19T11:49:32;2.80;;;1.87;;
1370;SDS011;14306;49.942;11.570;2023-11-19T11:52:02;2.50;;;1.40;;
1370;SDS011;14306;49.942;11.570;2023-11-19T11:54:31;3.97;;;1.60;;
1370;SDS011;14306;49.942;11.570;2023-11-19T11:57:06;7.80;;;3.30;;
1370;SDS011;14306;49.942;11.570;2023-11-19T11:59:43;3.80;;;1.40;;
1370;SDS011;14306;49.942;11.570;2023-11-19T12:02:14;1.90;;;1.37;;
1370;SDS011;14306;49.942;11.570;2023-11-19T12:04:48;9.67;;;2.90;;
1370;SDS011;14306;49.942;11.570;2023-11-19T12:07:18;2.67;;;2.10;;
1370;SDS011;14306;49.942;11.570;2023-11-19T12:09:48;3.40;;;2.17;;
1370;SDS011;14306;49.942;11.570;2023-11-19T12:12:21;1.97;;;1.30;;
1370;SDS011;14306;49.942;11.570;2023-11-19T12:15:03;4.70;;;2.20;;
1370;SDS011;14306;49.942;11.570;2023-11-19T12:17:40;1.27;;;1.17;;
1370;SDS011;14306;49.942;11.570;2023-11-19T12:20:13;4.53;;;1.70;;
1370;SDS011;14306;49.942;11.570;2023-11-19T12:22:59;3.63;;;1.30;;
1370;SDS011;14306;49.942;11.570;2023-11-19T12:25:34;18.50;;;1.87;;
1370;SDS011;14306;49.942;11.570;2023-11-19T12:28:02;2.90;;;1.63;;
1370;SDS011;14306;49.942;11.570;2023-11-19T12:30:32;3.50;;;1.70;;
1370;SDS011;14306;49.942;11.570;2023-11-19T12:33:07;1.97;;;1.13;;
1370;SDS011;14306;49.942;11.570;2023-11-19T12:35:39;3.23;;;1.23;;
1370;SDS011;14306;49.942;11.570;2023-11-19T12:38:08;3.50;;;1.40;;
1370;SDS011;14306;49.942;11.570;2023-11-19T12:40:46;1.67;;;1.27;;
1370;SDS011;14306;49.942;11.570;2023-11-19T12:43:21;3.17;;;1.33;;
1370;SDS011;14306;49.942;11.570;2023-11-19T12:45:50;2.00;;;1.03;;
1370;SDS011;14306;49.942;11.570;2023-11-19T12:48:18;4.63;;;1.70;;
1370;SDS011;14306;49.942;11.570;2023-11-19T12:50:54;5.10;;;1.40;;
1370;SDS011;14306;49.942;11.570;2023-11-19T12:53:24;2.70;;;1.40;;
1370;SDS011;14306;49.942;11.570;2023-11-19T12:55:54;6.17;;;1.80;;
1370;SDS011;14306;49.942;11.570;2023-11-19T12:58:29;3.13;;;1.40;;
1370;SDS011;14306;49.942;11.570;2023-11-19T13:01:02;8.60;;;2.20;;
1370;SDS011;14306;49.942;11.570;2023-11-19T13:03:31;4.17;;;1.70;;
1370;SDS011;14306;49.942;11.570;2023-11-19T13:06:05;2.70;;;1.80;;
1370;SDS011;14306;49.942;11.570;2023-11-19T13:08:36;5.10;;;2.20;;
1370;SDS011;14306;49.942;11.570;2023-11-19T13:11:06;5.47;;;1.50;;
1370;SDS011;14306;49.942;11.570;2023-11-19T13:13:54;6.80;;;2.70;;
1370;SDS011;14306;49.942;11.570;2023-11-19T13:16:22;3.80;;;1.43;;
1370;SDS011;14306;49.942;11.570;2023-11-19T13:18:52;6.07;;;1.87;;
1370;SDS011;14306;49.942;11.570;2023-11-19T13:21:21;4.87;;;1.47;;
1370;SDS011;14306;49.942;11.570;2023-11-19T13:23:50;5.60;;;2.00;;
1370;SDS011;14306;49.942;11.570;2023-11-19T13:26:18;4.80;;;2.00;;
1370;SDS011;14306;49.942;11.570;2023-11-19T13:28:47;8.07;;;3.20;;
1370;SDS011;14306;49.942;11.570;2023-11-19T13:31:15;10.30;;;3.00;;
1370;SDS011;14306;49.942;11.570;2023-11-19T13:33:43;8.23;;;4.37;;
1370;SDS011;14306;49.942;11.570;2023-11-19T13:36:12;8.60;;;3.20;;
1370;SDS011;14306;49.942;11.570;2023-11-19T13:38:44;10.30;;;2.63;;
1370;SDS011;14306;49.942;11.570;2023-11-19T13:41:13;4.13;;;2.70;;
1370;SDS011;14306;49.942;11.570;2023-11-19T13:43:41;9.00;;;2.97;;
1370;SDS011;14306;49.942;11.570;2023-11-19T13:46:10;5.70;;;2.83;;
1370;SDS011;14306;49.942;11.570;2023-11-19T13:48:38;5.00;;;2.13;;
1370;SDS011;14306;49.942;11.570;2023-11-19T13:51:07;2.57;;;1.70;;
1370;SDS011;14306;49.942;11.570;2023-11-19T13:53:36;6.00;;;1.90;;
1370;SDS011;14306;49.942;11.570;2023-11-19T13:56:09;5.00;;;2.20;;
1370;SDS011;14306;49.942;11.570;2023-11-19T13:58:38;4.30;;;1.63;;
1370;SDS011;14306;49.942;11.570;2023-11-19T14:01:06;10.97;;;3.00;;
1370;SDS011;14306;49.942;11.570;2023-11-19T14:03:35;12.03;;;3.20;;
1370;SDS011;14306;49.942;11.570;2023-11-19T14:06:03;9.00;;;2.53;;
1370;SDS011;14306;49.942;11.570;2023-11-19T14:08:32;12.50;;;2.70;;
1370;SDS011;14306;49.942;11.570;2023-11-19T14:11:01;4.10;;;1.50;;
1370;SDS011;14306;49.942;11.570;2023-11-19T14:13:31;8.20;;;1.93;;
1370;SDS011;14306;49.942;11.570;2023-11-19T14:15:59;8.60;;;2.07;;
1370;SDS011;14306;49.942;11.570;2023-11-19T14:18:28;2.60;;;1.40;;
1370;SDS011;14306;49.942;11.570;2023-11-19T14:20:56;4.60;;;2.63;;
1370;SDS011;14306;49.942;11.570;2023-11-19T14:23:25;5.03;;;1.77;;
1370;SDS011;14306;49.942;11.570;2023-11-19T14:25:54;7.37;;;2.10;;
1370;SDS011;14306;49.942;11.570;2023-11-19T14:28:22;3.33;;;1.93;;
1370;SDS011;14306;49.942;11.570;2023-11-19T14:30:53;6.57;;;1.53;;
1370;SDS011;14306;49.942;11.570;2023-11-19T14:33:23;3.60;;;1.97;;
1370;SDS011;14306;49.942;11.570;2023-11-19T14:35:52;4.70;;;1.80;;
1370;SDS011;14306;49.942;11.570;2023-11-19T14:38:20;3.63;;;1.97;;
1370;SDS011;14306;49.942;11.570;2023-11-19T14:40:49;6.30;;;2.00;;
1370;SDS011;14306;49.942;11.570;2023-11-19T14:43:17;3.00;;;1.37;;
1370;SDS011;14306;49.942;11.570;2023-11-19T14:45:45;4.43;;;2.40;;
1370;SDS011;14306;49.942;11.570;2023-11-19T14:48:17;4.27;;;2.20;;
1370;SDS011;14306;49.942;11.570;2023-11-19T14:50:45;4.53;;;1.60;;
1370;SDS011;14306;49.942;11.570;2023-11-19T14:53:14;2.77;;;1.57;;
1370;SDS011;14306;49.942;11.570;2023-11-19T14:55:42;7.90;;;1.97;;
1370;SDS011;14306;49.942;11.570;2023-11-19T14:58:10;3.70;;;1.80;;
1370;SDS011;14306;49.942;11.570;2023-11-19T15:00:43;3.40;;;1.57;;
1370;SDS011;14306;49.942;11.570;2023-11-19T15:03:12;5.27;;;2.00;;
1370;SDS011;14306;49.942;11.570;2023-11-19T15:05:42;4.13;;;1.77;;
1370;SDS011;14306;49.942;11.570;2023-11-19T15:08:10;4.90;;;1.57;;
1370;SDS011;14306;49.942;11.570;2023-11-19T15:10:38;2.43;;;1.50;;